createdAt,value
2018-09-05T00:02:04.544Z,24.42
2018-09-05T00:07:08.246Z,24.38
2018-09-05T00:12:12.707Z,24.36
2018-09-05T00:17:16.397Z,24.24
2018-09-05T00:22:20.134Z,24.27
2018-09-05T00:27:24.053Z,24.26
2018-09-05T00:32:27.779Z,24.22
2018-09-05T00:37:32.341Z,24.19
2018-09-05T00:42:36.025Z,24.13
2018-09-05T00:47:39.955Z,24.07
2018-09-05T00:52:43.698Z,24.02
2018-09-05T00:57:47.521Z,23.98
2018-09-05T01:02:51.314Z,23.96
2018-09-05T01:07:55.059Z,23.93
2018-09-05T01:12:58.751Z,23.91
2018-09-05T01:18:02.443Z,23.87
2018-09-05T01:23:06.070Z,23.84
2018-09-05T01:28:09.773Z,23.82
2018-09-05T01:33:13.455Z,23.80
2018-09-05T01:38:17.134Z,23.79
2018-09-05T01:43:20.840Z,23.79
2018-09-05T01:48:24.544Z,23.77
2018-09-05T01:53:28.247Z,23.76
2018-09-05T01:58:32.711Z,23.73
2018-09-05T02:03:36.453Z,23.71
2018-09-05T02:08:40.137Z,23.69
2018-09-05T02:13:43.848Z,23.69
2018-09-05T02:18:47.583Z,23.65
2018-09-05T02:23:51.408Z,23.64
2018-09-05T02:28:55.087Z,23.61
2018-09-05T02:33:59.888Z,23.61
2018-09-05T02:39:03.813Z,23.58
2018-09-05T02:44:23.513Z,23.58
2018-09-05T02:49:27.217Z,23.54
2018-09-05T02:54:30.941Z,23.53
2018-09-05T02:59:35.465Z,23.51
2018-09-05T03:04:39.168Z,23.50
2018-09-05T03:09:42.818Z,23.48
2018-09-05T03:14:46.563Z,23.47
2018-09-05T03:19:51.557Z,23.45
2018-09-05T03:24:55.206Z,23.43
2018-09-05T03:29:58.943Z,23.42
2018-09-05T03:35:07.539Z,23.39
2018-09-05T03:40:11.227Z,23.38
2018-09-05T03:45:14.959Z,23.28
2018-09-05T03:50:18.708Z,23.10
2018-09-05T03:55:22.436Z,23.04
2018-09-05T04:00:26.260Z,23.05
2018-09-05T04:05:30.121Z,22.95
2018-09-05T04:10:33.811Z,22.93
2018-09-05T04:21:05.352Z,22.90
2018-09-05T04:26:18.689Z,22.89
2018-09-05T04:31:27.581Z,22.85
2018-09-05T04:36:33.295Z,22.84
2018-09-05T04:41:38.581Z,22.85
2018-09-05T04:46:44.338Z,22.82
2018-09-05T04:51:49.442Z,22.82
2018-09-05T04:56:55.921Z,22.80
2018-09-05T05:02:01.202Z,22.79
2018-09-05T05:07:05.741Z,22.78
2018-09-05T05:17:32.415Z,22.78
2018-09-05T05:22:46.957Z,22.77
2018-09-05T05:27:51.904Z,22.79
2018-09-05T05:32:57.506Z,22.78
2018-09-05T05:38:10.079Z,22.77
2018-09-05T05:43:20.291Z,22.78
2018-09-05T05:48:25.204Z,22.78
2018-09-05T05:53:29.500Z,22.79
2018-09-05T05:58:33.345Z,22.80
2018-09-05T06:03:37.177Z,22.80
2018-09-05T06:08:41.214Z,22.81
2018-09-05T06:14:01.451Z,22.83
2018-09-05T06:24:44.819Z,22.85
2018-09-05T06:29:49.769Z,22.85
2018-09-05T06:35:04.930Z,22.86
2018-09-05T06:40:10.010Z,22.88
2018-09-05T06:45:28.117Z,22.91
2018-09-05T06:50:34.665Z,22.92
2018-09-05T07:06:27.929Z,23.02
2018-09-05T07:22:30.135Z,22.85
2018-09-05T07:27:33.898Z,22.22
2018-09-05T07:32:37.745Z,22.32
2018-09-05T07:37:41.414Z,22.11
2018-09-05T07:42:45.047Z,21.88
2018-09-05T07:47:48.729Z,21.95
2018-09-05T07:52:52.370Z,21.88
2018-09-05T07:57:55.988Z,21.86
2018-09-05T08:02:59.790Z,21.93
2018-09-05T08:08:03.424Z,21.95
2018-09-05T08:13:07.079Z,22.06
2018-09-05T08:18:11.146Z,22.08
2018-09-05T08:23:14.980Z,21.80
2018-09-05T08:28:18.698Z,22.19
2018-09-05T08:33:22.321Z,22.56
2018-09-05T08:38:26.088Z,22.62
2018-09-05T08:43:29.709Z,22.73
2018-09-05T08:48:34.373Z,22.60
2018-09-05T08:53:37.959Z,22.79
2018-09-05T08:58:41.648Z,22.90
2018-09-05T09:03:45.298Z,22.97
2018-09-05T09:08:48.984Z,22.95
2018-09-05T09:13:52.633Z,23.01
2018-09-05T09:18:56.346Z,22.96
2018-09-05T09:23:59.970Z,23.09
2018-09-05T09:29:03.644Z,23.06
2018-09-05T09:34:07.259Z,23.13
2018-09-05T09:39:11.808Z,23.18
2018-09-05T09:44:15.486Z,23.16
2018-09-05T09:49:19.162Z,23.14
2018-09-05T09:54:22.823Z,23.21
2018-09-05T09:59:26.547Z,23.14
2018-09-05T10:04:35.387Z,23.16
2018-09-05T10:09:44.463Z,23.23
2018-09-05T10:14:52.439Z,23.35
2018-09-05T10:19:56.762Z,23.41
2018-09-05T10:25:00.572Z,23.38
2018-09-05T10:30:04.237Z,23.46
2018-09-05T10:35:07.934Z,23.45
2018-09-05T10:40:11.569Z,23.55
2018-09-05T10:45:15.287Z,23.52
2018-09-05T10:50:18.990Z,23.48
2018-09-05T10:55:22.642Z,23.51
2018-09-05T11:00:26.334Z,23.62
2018-09-05T11:05:29.990Z,23.65
2018-09-05T11:10:33.776Z,23.71
2018-09-05T11:15:37.518Z,23.60
2018-09-05T11:20:41.168Z,23.70
2018-09-05T11:25:44.777Z,23.73
2018-09-05T11:30:48.411Z,23.77
2018-09-05T11:35:52.154Z,23.72
2018-09-05T11:40:55.791Z,23.74
2018-09-05T11:45:59.510Z,23.82
2018-09-05T11:51:03.307Z,23.95
2018-09-05T11:56:07.048Z,23.94
2018-09-05T12:01:10.774Z,23.91
2018-09-05T12:06:14.411Z,23.99
2018-09-05T12:11:18.122Z,23.98
2018-09-05T12:16:21.797Z,24.00
2018-09-05T12:21:25.505Z,24.07
2018-09-05T12:26:29.234Z,24.13
2018-09-05T12:31:33.199Z,24.02
2018-09-05T12:36:36.887Z,24.17
2018-09-05T12:41:40.944Z,24.16
2018-09-05T12:46:44.601Z,24.15
2018-09-05T12:51:48.263Z,24.09
2018-09-05T12:56:51.962Z,24.07
2018-09-05T13:01:55.637Z,24.07
2018-09-05T13:06:59.530Z,24.04
2018-09-05T13:12:03.262Z,24.02
2018-09-05T13:17:06.983Z,24.14
2018-09-05T13:22:10.767Z,24.22
2018-09-05T13:27:14.390Z,24.37
2018-09-05T13:32:18.132Z,24.33
2018-09-05T13:37:22.358Z,24.29
2018-09-05T13:42:26.128Z,24.28
2018-09-05T13:47:29.860Z,24.29
2018-09-05T13:52:33.475Z,24.27
2018-09-05T13:57:37.148Z,24.25
2018-09-05T14:02:40.897Z,24.25
2018-09-05T14:07:44.740Z,24.24
2018-09-05T14:12:48.498Z,24.23
2018-09-05T14:17:52.739Z,24.17
2018-09-05T14:22:56.346Z,24.22
2018-09-05T14:28:00.038Z,24.28
2018-09-05T14:33:03.819Z,24.29
2018-09-05T14:38:07.495Z,24.33
2018-09-05T14:43:11.192Z,24.32
2018-09-05T14:48:14.938Z,24.30
2018-09-05T14:53:18.612Z,24.28
2018-09-05T14:58:22.284Z,24.25
2018-09-05T15:03:25.901Z,24.28
2018-09-05T15:08:29.562Z,24.27
2018-09-05T15:13:33.142Z,24.29
2018-09-05T15:18:36.837Z,24.32
2018-09-05T15:23:40.606Z,24.38
2018-09-05T15:28:44.356Z,24.47
2018-09-05T15:33:48.006Z,24.54
2018-09-05T15:38:51.798Z,24.64
2018-09-05T15:43:55.485Z,24.81
2018-09-05T15:48:59.167Z,24.92
2018-09-05T15:54:03.037Z,25.16
2018-09-05T15:59:08.504Z,25.27
2018-09-05T16:04:12.402Z,25.29
2018-09-05T16:09:16.133Z,25.35
2018-09-05T16:14:19.844Z,25.45
2018-09-05T16:19:23.502Z,25.46
2018-09-05T16:24:27.575Z,25.50
2018-09-05T16:29:31.630Z,25.46
2018-09-05T16:34:35.381Z,25.39
2018-09-05T16:39:39.134Z,25.35
2018-09-05T16:44:42.939Z,25.35
2018-09-05T16:49:46.622Z,25.34
2018-09-05T16:54:50.393Z,25.31
2018-09-05T16:59:54.735Z,25.32
2018-09-05T17:04:58.380Z,25.28
2018-09-05T17:10:05.488Z,25.22
2018-09-05T17:15:09.235Z,25.23
2018-09-05T17:20:12.935Z,25.21
2018-09-05T17:25:17.297Z,25.21
2018-09-05T17:30:20.945Z,25.22
2018-09-05T17:35:24.766Z,25.18
2018-09-05T17:40:28.469Z,25.17
2018-09-05T17:45:32.171Z,25.16
2018-09-05T17:50:35.916Z,25.18
2018-09-05T17:55:39.622Z,25.16
2018-09-05T18:00:43.491Z,25.16
2018-09-05T18:05:47.176Z,25.11
2018-09-05T18:10:50.939Z,25.21
2018-09-05T18:15:54.686Z,25.14
2018-09-05T18:20:58.358Z,25.15
2018-09-05T18:26:02.158Z,25.12
2018-09-05T18:31:05.911Z,25.14
2018-09-05T18:36:09.622Z,25.14
2018-09-05T18:41:13.273Z,25.12
2018-09-05T18:46:17.378Z,25.09
2018-09-05T18:51:21.169Z,25.10
2018-09-05T18:56:24.990Z,25.13
2018-09-05T19:01:28.708Z,25.13
2018-09-05T19:06:32.463Z,25.15
2018-09-05T19:11:36.134Z,25.07
2018-09-05T19:16:40.015Z,25.06
2018-09-05T19:21:43.705Z,25.10
2018-09-05T19:26:47.392Z,25.09
2018-09-05T19:31:51.932Z,25.03
2018-09-05T19:36:55.662Z,25.02
2018-09-05T19:41:59.371Z,25.05
2018-09-05T19:47:03.104Z,25.02
2018-09-05T19:52:06.919Z,25.00
2018-09-05T19:57:10.929Z,24.99
2018-09-05T20:02:15.664Z,24.95
2018-09-05T20:07:20.291Z,24.96
2018-09-05T20:12:24.231Z,24.96
2018-09-05T20:17:28.002Z,24.90
2018-09-05T20:22:35.856Z,24.92
2018-09-05T20:27:39.662Z,24.94
2018-09-05T20:32:43.354Z,24.93
2018-09-05T20:37:47.093Z,24.89
2018-09-05T20:42:50.769Z,24.85
2018-09-05T20:47:54.535Z,24.83
2018-09-05T20:52:58.283Z,24.86
2018-09-05T20:58:02.503Z,25.04
2018-09-05T21:03:06.351Z,25.18
2018-09-05T21:08:09.996Z,25.19
2018-09-05T21:13:16.382Z,25.20
2018-09-05T21:18:21.501Z,25.23
2018-09-05T21:23:27.855Z,25.20
2018-09-05T21:28:33.094Z,25.29
2018-09-05T21:33:37.931Z,25.25
2018-09-05T21:38:43.737Z,25.26
2018-09-05T21:43:51.494Z,25.27
2018-09-05T21:48:55.179Z,25.22
2018-09-05T21:53:58.851Z,25.29
2018-09-05T21:59:02.732Z,25.28
2018-09-05T22:04:06.460Z,25.29
2018-09-05T22:09:11.047Z,25.27
2018-09-05T22:14:14.762Z,25.25
2018-09-05T22:19:18.529Z,25.26
2018-09-05T22:24:22.469Z,25.30
2018-09-05T22:29:26.234Z,25.32
2018-09-05T22:34:29.925Z,25.25
2018-09-05T22:39:33.839Z,25.27
2018-09-05T22:44:49.340Z,25.29
2018-09-05T22:50:13.248Z,25.26
2018-09-05T22:55:31.257Z,25.26
2018-09-05T23:02:48.530Z,25.26
2018-09-05T23:08:39.356Z,25.25
2018-09-05T23:15:58.808Z,25.26
2018-09-05T23:21:19.096Z,25.23
2018-09-05T23:26:22.727Z,25.22
2018-09-05T23:31:26.607Z,25.21
2018-09-05T23:36:30.322Z,25.21
2018-09-05T23:41:33.995Z,25.19
2018-09-05T23:46:37.650Z,25.22
2018-09-05T23:51:41.270Z,25.18
2018-09-05T23:56:44.983Z,25.19
